Pct Moose — CGCZ — position and weather

sailwx.info

Track history (hours):
 
Tides and Currents Weather Stations Pressure Air Temp Water Temp Dewpoint Dewpoint Depression Visibility Wind Speed Wind Dir Waves Ship Positions

Pct Moose

Last reported at 2018-Apr-13 19:21 UTC. Time now 2018-Apr-19 11:34 UTC.
Position N 48°23' W 123°22'.

Length 33 m; draft 2.6 m.

Type: Military. MMSI: 316013412.

Date/timePositionNaut miles runAvg speedWind from/ knotsBaromVisibWave heightAir tempDewpointWater temp
2018-Apr-13 19:21N 48°23' W 123°22'3 9.6
2018-Apr-13 19:00N 48°24' W 123°17'4 8.9
2018-Apr-13 18:30N 48°28' W 123°14'611.5
2018-Apr-13 18:00N 48°34' W 123°13'611.7
2018-Apr-13 17:30N 48°39' W 123°15'510.6
2018-Apr-13 17:00N 48°42' W 123°22'510.5
2018-Apr-13 16:30N 48°41' W 123°30'1 2.2
2018-Apr-13 16:00N 48°40' W 123°31'1 2.1
2018-Apr-13 15:30N 48°39' W 123°32'4 7.0
2018-Apr-13 15:00N 48°42' W 123°29'6 5.9
2018-Apr-13 14:00N 48°39' W 123°21'5 9.7
2018-Apr-13 13:31N 48°35' W 123°19'611.2
2018-Apr-13 13:00N 48°29' W 123°15'3 7.0
2018-Apr-13 12:30N 48°27' W 123°12'510.7
2018-Apr-13 12:00N 48°32' W 123°13'510.5
2018-Apr-13 11:30N 48°37' W 123°15'510.9
2018-Apr-13 11:00N 48°42' W 123°17'611.1
2018-Apr-13 10:30N 48°47' W 123°21'1010.5
2018-Apr-13 09:31N 48°55' W 123°30'4 8.2
2018-Apr-13 09:00N 48°56' W 123°37'4 7.0
2018-Apr-13 08:29N 48°57' W 123°42'5 4.1
2018-Apr-13 07:16N 48°60' W 123°36'312.1
2018-Apr-13 07:00N 48°57' W 123°33'712.1
2018-Apr-13 06:28N 48°53' W 123°26'510.5
2018-Apr-13 05:57N 48°49' W 123°20'3 6.7
2018-Apr-13 05:30N 48°50' W 123°25'5 9.7
2018-Apr-13 04:59N 48°54' W 123°28'510.0
2018-Apr-13 04:28N 48°57' W 123°35'3 6.8
2018-Apr-13 04:00N 48°55' W 123°39'8 8.8
2018-Apr-13 03:03N 49°03' W 123°42'5 9.6
2018-Apr-13 02:33N 48°60' W 123°36'1 9.1
2018-Apr-13 02:30N 48°59' W 123°36'5 8.7
2018-Apr-13 01:52N 48°56' W 123°29'3 8.5
2018-Apr-13 01:30N 48°54' W 123°25'0 0.0
2018-Apr-13 00:54N 48°54' W 123°25'0 0.0
2018-Apr-13 00:30N 48°54' W 123°25'0 0.0
2018-Apr-13 00:00N 48°54' W 123°25'0 0.0
2018-Apr-12 23:30N 48°54' W 123°25'0 0.0
2018-Apr-12 23:00N 48°54' W 123°25'0 0.0
2018-Apr-12 22:28N 48°54' W 123°25'3 6.3
2018-Apr-12 22:00N 48°55' W 123°29'1 2.4
2018-Apr-12 21:30N 48°54' W 123°28'5 9.7
2018-Apr-12 21:00N 48°51' W 123°23'3 7.0
2018-Apr-12 20:30N 48°48' W 123°21'4 8.5
2018-Apr-12 20:00N 48°51' W 123°25'5 8.1
2018-Apr-12 19:24N 48°55' W 123°30'4 7.8
2018-Apr-12 18:53N 48°57' W 123°35'3 5.7
2018-Apr-12 18:24N 48°54' W 123°36'1 2.8
2018-Apr-12 18:01N 48°55' W 123°38'2 1.4
2018-Apr-12 16:26N 48°53' W 123°36'4 9.1
2018-Apr-12 15:59N 48°56' W 123°40'7 7.6
2018-Apr-12 15:03N 49°03' W 123°43'010.3
2018-Apr-12 15:00N 49°03' W 123°43'9 9.7
2018-Apr-12 14:08N 48°57' W 123°33'210.2
2018-Apr-12 13:55N 48°56' W 123°31'410.4
2018-Apr-12 13:30N 48°53' W 123°26'5 9.9
2018-Apr-12 13:00N 48°49' W 123°20'3 5.7
2018-Apr-12 12:30N 48°49' W 123°24'5 9.5
2018-Apr-12 11:59N 48°54' W 123°28'6 9.4
2018-Apr-12 11:20N 48°57' W 123°35'3 7.8
2018-Apr-12 11:00N 48°54' W 123°36'5 8.9
2018-Apr-12 10:27N 48°57' W 123°43'6 4.1
2018-Apr-12 08:52N 48°57' W 123°33'510.2
2018-Apr-12 08:24N 48°54' W 123°28'410.1
2018-Apr-12 08:00N 48°51' W 123°23'5 8.8
2018-Apr-12 07:29N 48°47' W 123°20'3 5.6
2018-Apr-12 07:00N 48°45' W 123°22'4 7.0
2018-Apr-12 06:25N 48°49' W 123°23'3 7.4
2018-Apr-12 05:59N 48°52' W 123°25'4 8.0
2018-Apr-12 05:27N 48°55' W 123°29'5 8.0
2018-Apr-12 04:52N 48°57' W 123°36'3 7.2
2018-Apr-12 04:29N 48°54' W 123°37'5 7.8
2018-Apr-12 03:51N 48°57' W 123°43'2 4.0
2018-Apr-12 03:27N 48°59' W 123°43'1 1.4
2018-Apr-12 02:59N 48°59' W 123°43'5 3.7
2018-Apr-12 01:41N 48°60' W 123°36'3 8.2
2018-Apr-12 01:17N 48°57' W 123°33'2 7.8
2018-Apr-12 00:58N 48°56' W 123°29'4 8.0
2018-Apr-12 00:30N 48°53' W 123°26'4 7.8
2018-Apr-12 00:00N 48°50' W 123°21'4 7.6
2018-Apr-11 23:28N 48°46' W 123°20'13 4.1
2018-Apr-11 20:13N 48°56' W 123°34'1 0.9
2018-Apr-11 18:53N 48°57' W 123°33'4 9.8
2018-Apr-11 18:30N 48°55' W 123°29'2 4.4
2018-Apr-11 18:00N 48°53' W 123°27'5 9.5
2018-Apr-11 17:25N 48°50' W 123°20'6 2.8
2018-Apr-11 15:16N 48°44' W 123°24'2 8.7
2018-Apr-11 14:59N 48°46' W 123°21'3 6.8
2018-Apr-11 14:30N 48°49' W 123°24'5 8.9
2018-Apr-11 13:57N 48°53' W 123°27'4 9.2
2018-Apr-11 13:29N 48°56' W 123°32'3 5.9
2018-Apr-11 13:00N 48°56' W 123°37'2 4.5
2018-Apr-11 12:29N 48°56' W 123°40'6 2.8
2018-Apr-11 10:28N 48°56' W 123°32'4 9.4
2018-Apr-11 10:00N 48°53' W 123°27'5 9.6
2018-Apr-11 09:29N 48°50' W 123°21'4 9.2
2018-Apr-11 09:00N 48°46' W 123°21'5 9.4
2018-Apr-11 08:30N 48°43' W 123°26'4 7.2
2018-Apr-11 07:53N 48°40' W 123°31'3 8.2
2018-Apr-11 07:30N 48°42' W 123°28'5 9.1
2018-Apr-11 06:55N 48°45' W 123°22'2 5.4
2018-Apr-11 06:28N 48°48' W 123°22'2 5.1
2018-Apr-11 06:00N 48°49' W 123°25'7 7.9
2018-Apr-11 05:10N 48°55' W 123°30'5 9.4
2018-Apr-11 04:39N 48°57' W 123°36'3 9.2
2018-Apr-11 04:18N 48°54' W 123°37'4 9.0
2018-Apr-11 03:53N 48°56' W 123°41'1 1.6
2018-Apr-11 03:30N 48°56' W 123°41'5 2.4
2018-Apr-11 01:19N 48°58' W 123°33'3 8.6
2018-Apr-11 00:55N 48°55' W 123°30'4 8.6
2018-Apr-11 00:29N 48°52' W 123°26'4 9.5
2018-Apr-11 00:00N 48°50' W 123°20'4 6.8
2018-Apr-10 23:28N 48°46' W 123°20'4 2.4
2018-Apr-10 21:56N 48°44' W 123°24'3 7.4
2018-Apr-10 21:28N 48°47' W 123°21'4 7.9
2018-Apr-10 20:58N 48°50' W 123°25'4 8.3
2018-Apr-10 20:28N 48°54' W 123°28'7 9.1
2018-Apr-10 19:45N 48°57' W 123°36'3 8.4
2018-Apr-10 19:27N 48°55' W 123°36'9 7.2
2018-Apr-10 18:14N 49°01' W 123°44'0 0.3
2018-Apr-10 17:27N 49°01' W 123°44'2 4.7
2018-Apr-10 17:00N 48°59' W 123°44'1 1.9
2018-Apr-10 16:27N 48°60' W 123°45'3 6.1
2018-Apr-10 16:00N 48°57' W 123°43'2 4.3
2018-Apr-10 15:29N 48°60' W 123°44'2 4.3
2018-Apr-10 14:59N 48°57' W 123°43'1 1.1
2018-Apr-10 14:29N 48°58' W 123°43'3 5.4
2018-Apr-10 14:00N 49°00' W 123°44'8 5.3
2018-Apr-10 12:28N 48°57' W 123°33'4 7.5
2018-Apr-10 12:00N 48°55' W 123°29'4 7.6
2018-Apr-10 11:29N 48°52' W 123°25'4 7.6
2018-Apr-10 11:00N 48°50' W 123°20'3 4.7
2018-Apr-10 10:28N 48°49' W 123°24'4 8.0
2018-Apr-10 09:57N 48°53' W 123°26'4 7.9
2018-Apr-10 09:25N 48°55' W 123°31'3 8.0
2018-Apr-10 09:00N 48°57' W 123°36'3 6.1
2018-Apr-10 08:29N 48°54' W 123°38'4 8.1
2018-Apr-10 08:00N 48°57' W 123°42'5 3.5
2018-Apr-10 06:30N 49°00' W 123°36'5 8.4
2018-Apr-10 05:55N 48°56' W 123°32'4 8.4
2018-Apr-10 05:30N 48°54' W 123°28'6 8.8
2018-Apr-10 04:47N 48°50' W 123°21'2 6.4
2018-Apr-10 04:27N 48°48' W 123°22'3 6.5
2018-Apr-10 03:59N 48°50' W 123°25'4 7.1
2018-Apr-10 03:29N 48°53' W 123°27'6 5.7
2018-Apr-10 02:23N 48°54' W 123°36'4 9.5
2018-Apr-10 02:01N 48°56' W 123°41'6 9.2
2018-Apr-10 01:23N 49°02' W 123°44'8 7.3
2018-Apr-10 00:17N 48°58' W 123°33'3 9.4
2018-Apr-09 23:57N 48°55' W 123°30'4 9.5
2018-Apr-09 23:28N 48°52' W 123°25'4 9.1
2018-Apr-09 22:59N 48°49' W 123°20'9 8.7
2018-Apr-09 21:56N 48°41' W 123°15'3 7.1
2018-Apr-09 21:29N 48°38' W 123°13'3 7.3
2018-Apr-09 21:00N 48°34' W 123°12'4 8.3
2018-Apr-09 20:30N 48°30' W 123°11'4 8.9
2018-Apr-09 20:00N 48°26' W 123°10'4 8.4
2018-Apr-09 19:30N 48°23' W 123°15'4 5.1
2018-Apr-09 18:44N 48°21' W 123°20'315.1
2018-Apr-09 18:30N 48°21' W 123°15'1 1.6
2018-Apr-09 18:00N 48°21' W 123°16'  
2018-Apr-06 20:01N 48°23' W 123°23'0 9.3
2018-Apr-06 20:00N 48°23' W 123°22'19 8.6
2018-Apr-06 17:47N 48°42' W 123°16'310.1
2018-Apr-06 17:30N 48°44' W 123°18'5 9.7
2018-Apr-06 17:00N 48°48' W 123°22'5 9.2
2018-Apr-06 16:30N 48°52' W 123°25'510.0
2018-Apr-06 16:00N 48°55' W 123°31'3 6.7
2018-Apr-06 15:29N 48°55' W 123°37'3 6.1
2018-Apr-06 15:00N 48°56' W 123°41'5 3.8
2018-Apr-06 13:42N 48°60' W 123°36'210.3
2018-Apr-06 13:30N 48°58' W 123°34'510.4
2018-Apr-06 13:00N 48°55' W 123°29'510.2
2018-Apr-06 12:30N 48°51' W 123°23'3 6.6
2018-Apr-06 12:00N 48°48' W 123°22'5 9.5
2018-Apr-06 11:31N 48°52' W 123°25'510.0
2018-Apr-06 11:00N 48°55' W 123°31'4 7.8
2018-Apr-06 10:30N 48°56' W 123°37'3 5.1
2018-Apr-06 09:59N 48°56' W 123°40'5 3.7
2018-Apr-06 08:38N 48°60' W 123°36'210.0
2018-Apr-06 08:25N 48°58' W 123°34'4 9.7
2018-Apr-06 08:00N 48°55' W 123°30'5 9.5
2018-Apr-06 07:30N 48°52' W 123°25'510.5
2018-Apr-06 07:01N 48°48' W 123°20'13 8.2
2018-Apr-06 05:27N 48°48' W 123°01'511.1
2018-Apr-06 05:00N 48°52' W 123°06'610.9
2018-Apr-06 04:29N 48°56' W 123°12'511.0
2018-Apr-06 04:00N 48°60' W 123°18'510.7
2018-Apr-06 03:30N 49°03' W 123°24'510.5
2018-Apr-06 02:59N 49°09' W 123°23'510.9
2018-Apr-06 02:30N 49°14' W 123°21'510.8
2018-Apr-06 02:00N 49°19' W 123°17'611.0
2018-Apr-06 01:30N 49°19' W 123°09'2 3.3
2018-Apr-06 01:00N 49°18' W 123°07'0 0.0
2018-Apr-06 00:30N 49°18' W 123°07'0 0.0
2018-Apr-06 00:00N 49°18' W 123°07'1 1.2
2018-Apr-05 23:30N 49°18' W 123°06'0 0.5
2018-Apr-05 23:00N 49°18' W 123°06'1 2.3
2018-Apr-05 22:31N 49°19' W 123°08'4 7.3
2018-Apr-05 22:00N 49°19' W 123°14'510.6
2018-Apr-05 21:31N 49°18' W 123°22'611.0
2018-Apr-05 21:00N 49°20' W 123°30'3 6.9
2018-Apr-05 20:30N 49°23' W 123°28'5 8.9
2018-Apr-05 20:00N 49°27' W 123°24'0 0.6
2018-Apr-05 19:30N 49°27' W 123°24'1 2.1
2018-Apr-05 19:00N 49°27' W 123°23'2 3.5
2018-Apr-05 18:30N 49°26' W 123°25'0 0.2
2018-Apr-05 18:00N 49°26' W 123°25'0 0.4
2018-Apr-05 17:30N 49°26' W 123°25'0 0.5
2018-Apr-05 16:59N 49°26' W 123°25'1 1.6
2018-Apr-05 16:30N 49°27' W 123°23'0 0.4
2018-Apr-05 15:59N 49°26' W 123°23'1 1.5
2018-Apr-05 15:30N 49°26' W 123°24'3 6.2
2018-Apr-05 15:00N 49°26' W 123°19'3 6.7
2018-Apr-05 14:30N 49°24' W 123°24'5 9.3
2018-Apr-05 14:00N 49°22' W 123°30'1210.2
2018-Apr-05 12:49N 49°23' W 123°49'510.2
2018-Apr-05 12:20N 49°23' W 123°57'410.1
2018-Apr-05 11:57N 49°24' W 124°02'510.4
2018-Apr-05 11:30N 49°24' W 124°10'510.5
2018-Apr-05 10:59N 49°24' W 124°18'5 9.9
2018-Apr-05 10:30N 49°25' W 124°25'510.2
2018-Apr-05 09:59N 49°30' W 124°29'5 9.2
2018-Apr-05 09:28N 49°34' W 124°33'510.2
2018-Apr-05 09:00N 49°38' W 124°37'5 9.4
2018-Apr-05 08:30N 49°42' W 124°41'611.4
2018-Apr-05 08:00N 49°47' W 124°41'5 9.3
2018-Apr-05 07:30N 49°49' W 124°34'612.0
2018-Apr-05 07:00N 49°45' W 124°26'611.4
2018-Apr-05 06:27N 49°42' W 124°18'711.7
2018-Apr-05 05:50N 49°36' W 124°11'1811.7
2018-Apr-05 04:16N 49°23' W 123°52'311.2
2018-Apr-05 04:00N 49°21' W 123°49'5 8.3
2018-Apr-05 03:23N 49°17' W 123°43'3 6.0
2018-Apr-05 02:55N 49°15' W 123°40'511.5
2018-Apr-05 02:30N 49°12' W 123°34'510.8
2018-Apr-05 02:00N 49°09' W 123°28'610.8
2018-Apr-05 01:29N 49°05' W 123°22'510.5
2018-Apr-05 01:00N 49°02' W 123°16'610.9
2018-Apr-05 00:30N 48°58' W 123°10'611.4
2018-Apr-05 00:00N 48°54' W 123°04'611.8
2018-Apr-04 23:30N 48°49' W 122°60'510.9
2018-Apr-04 23:00N 48°45' W 123°05'610.9
2018-Apr-04 22:29N 48°42' W 123°13'4 8.2
2018-Apr-04 22:00N 48°38' W 123°14'510.4
2018-Apr-04 21:30N 48°33' W 123°12'510.5
2018-Apr-04 21:00N 48°28' W 123°09'5 9.8
2018-Apr-04 20:30N 48°24' W 123°12'5 9.5
2018-Apr-04 20:00N 48°22' W 123°19'6 1.2
2018-Apr-04 15:06N 48°23' W 123°28'1 8.4
2018-Apr-04 15:00N 48°23' W 123°27'2 3.8
2018-Apr-04 14:30N 48°21' W 123°28'4 7.5
2018-Apr-04 14:00N 48°23' W 123°23'4 7.2
2018-Apr-04 13:30N 48°23' W 123°17'3 6.3
2018-Apr-04 13:00N 48°25' W 123°13'3 6.3
2018-Apr-04 12:30N 48°28' W 123°12'4 8.1
2018-Apr-04 12:00N 48°32' W 123°13'4 8.3
2018-Apr-04 11:30N 48°36' W 123°14'4 7.8
2018-Apr-04 11:00N 48°40' W 123°16'4 7.2
2018-Apr-04 10:30N 48°43' W 123°13'5 9.1
2018-Apr-04 10:00N 48°45' W 123°07'4 8.3
2018-Apr-04 09:30N 48°47' W 123°02'3 6.7
2018-Apr-04 08:59N 48°50' W 123°03'4 9.0
2018-Apr-04 08:30N 48°53' W 123°08'5 8.9
2018-Apr-04 08:00N 48°56' W 123°13'4 8.9
2018-Apr-04 07:30N 48°60' W 123°18'4 8.5
2018-Apr-04 06:59N 49°03' W 123°23'3 7.2
2018-Apr-04 06:30N 49°06' W 123°24'4 8.0
2018-Apr-04 06:00N 49°10' W 123°23'3 5.6
2018-Apr-04 05:30N 49°12' W 123°19'4 8.2
2018-Apr-04 05:00N 49°08' W 123°20'4 7.5
2018-Apr-04 04:29N 49°04' W 123°19'4 8.4
2018-Apr-04 04:00N 49°01' W 123°15'5 9.9
2018-Apr-04 03:28N 48°57' W 123°09'5 9.7
2018-Apr-04 02:55N 48°54' W 123°03'410.2
2018-Apr-04 02:30N 48°51' W 122°58'611.8
2018-Apr-04 01:59N 48°46' W 123°03'813.5
2018-Apr-04 01:23N 48°42' W 123°14'410.6
2018-Apr-04 01:00N 48°38' W 123°14'611.5
2018-Apr-04 00:30N 48°33' W 123°11'510.1
2018-Apr-04 00:01N 48°28' W 123°10'611.4
2018-Apr-03 23:30N 48°23' W 123°13'610.0
2018-Apr-03 22:54N 48°18' W 123°20'2 5.9
2018-Apr-03 22:30N 48°20' W 123°19'  
Track history (hours):
 
Tides and Currents Weather Stations Pressure Air Temp Water Temp Dewpoint Dewpoint Depression Visibility Wind Speed Wind Dir Waves Ship Positions

Pct Moose

Last reported at 2018-Apr-13 19:21 UTC. Time now 2018-Apr-19 11:34 UTC.
Position N 48°23' W 123°22'.

Length 33 m; draft 2.6 m.

Type: Military. MMSI: 316013412.

Date/timePositionNaut miles runAvg speedWind from/ knotsBaromVisibWave heightAir tempDewpointWater temp
2018-Apr-13 19:21N 48°23' W 123°22'3 9.6
2018-Apr-13 19:00N 48°24' W 123°17'4 8.9
2018-Apr-13 18:30N 48°28' W 123°14'611.5
2018-Apr-13 18:00N 48°34' W 123°13'611.7
2018-Apr-13 17:30N 48°39' W 123°15'510.6
2018-Apr-13 17:00N 48°42' W 123°22'510.5
2018-Apr-13 16:30N 48°41' W 123°30'1 2.2
2018-Apr-13 16:00N 48°40' W 123°31'1 2.1
2018-Apr-13 15:30N 48°39' W 123°32'4 7.0
2018-Apr-13 15:00N 48°42' W 123°29'6 5.9
2018-Apr-13 14:00N 48°39' W 123°21'5 9.7
2018-Apr-13 13:31N 48°35' W 123°19'611.2
2018-Apr-13 13:00N 48°29' W 123°15'3 7.0
2018-Apr-13 12:30N 48°27' W 123°12'510.7
2018-Apr-13 12:00N 48°32' W 123°13'510.5
2018-Apr-13 11:30N 48°37' W 123°15'510.9
2018-Apr-13 11:00N 48°42' W 123°17'611.1
2018-Apr-13 10:30N 48°47' W 123°21'1010.5
2018-Apr-13 09:31N 48°55' W 123°30'4 8.2
2018-Apr-13 09:00N 48°56' W 123°37'4 7.0
2018-Apr-13 08:29N 48°57' W 123°42'5 4.1
2018-Apr-13 07:16N 48°60' W 123°36'312.1
2018-Apr-13 07:00N 48°57' W 123°33'712.1
2018-Apr-13 06:28N 48°53' W 123°26'510.5
2018-Apr-13 05:57N 48°49' W 123°20'3 6.7
2018-Apr-13 05:30N 48°50' W 123°25'5 9.7
2018-Apr-13 04:59N 48°54' W 123°28'510.0
2018-Apr-13 04:28N 48°57' W 123°35'3 6.8
2018-Apr-13 04:00N 48°55' W 123°39'8 8.8
2018-Apr-13 03:03N 49°03' W 123°42'5 9.6
2018-Apr-13 02:33N 48°60' W 123°36'1 9.1
2018-Apr-13 02:30N 48°59' W 123°36'5 8.7
2018-Apr-13 01:52N 48°56' W 123°29'3 8.5
2018-Apr-13 01:30N 48°54' W 123°25'0 0.0
2018-Apr-13 00:54N 48°54' W 123°25'0 0.0
2018-Apr-13 00:30N 48°54' W 123°25'0 0.0
2018-Apr-13 00:00N 48°54' W 123°25'0 0.0
2018-Apr-12 23:30N 48°54' W 123°25'0 0.0
2018-Apr-12 23:00N 48°54' W 123°25'0 0.0
2018-Apr-12 22:28N 48°54' W 123°25'3 6.3
2018-Apr-12 22:00N 48°55' W 123°29'1 2.4
2018-Apr-12 21:30N 48°54' W 123°28'5 9.7
2018-Apr-12 21:00N 48°51' W 123°23'3 7.0
2018-Apr-12 20:30N 48°48' W 123°21'4 8.5
2018-Apr-12 20:00N 48°51' W 123°25'5 8.1
2018-Apr-12 19:24N 48°55' W 123°30'4 7.8
2018-Apr-12 18:53N 48°57' W 123°35'3 5.7
2018-Apr-12 18:24N 48°54' W 123°36'1 2.8
2018-Apr-12 18:01N 48°55' W 123°38'2 1.4
2018-Apr-12 16:26N 48°53' W 123°36'4 9.1
2018-Apr-12 15:59N 48°56' W 123°40'7 7.6
2018-Apr-12 15:03N 49°03' W 123°43'010.3
2018-Apr-12 15:00N 49°03' W 123°43'9 9.7
2018-Apr-12 14:08N 48°57' W 123°33'210.2
2018-Apr-12 13:55N 48°56' W 123°31'410.4
2018-Apr-12 13:30N 48°53' W 123°26'5 9.9
2018-Apr-12 13:00N 48°49' W 123°20'3 5.7
2018-Apr-12 12:30N 48°49' W 123°24'5 9.5
2018-Apr-12 11:59N 48°54' W 123°28'6 9.4
2018-Apr-12 11:20N 48°57' W 123°35'3 7.8
2018-Apr-12 11:00N 48°54' W 123°36'5 8.9
2018-Apr-12 10:27N 48°57' W 123°43'6 4.1
2018-Apr-12 08:52N 48°57' W 123°33'510.2
2018-Apr-12 08:24N 48°54' W 123°28'410.1
2018-Apr-12 08:00N 48°51' W 123°23'5 8.8
2018-Apr-12 07:29N 48°47' W 123°20'3 5.6
2018-Apr-12 07:00N 48°45' W 123°22'4 7.0
2018-Apr-12 06:25N 48°49' W 123°23'3 7.4
2018-Apr-12 05:59N 48°52' W 123°25'4 8.0
2018-Apr-12 05:27N 48°55' W 123°29'5 8.0
2018-Apr-12 04:52N 48°57' W 123°36'3 7.2
2018-Apr-12 04:29N 48°54' W 123°37'5 7.8
2018-Apr-12 03:51N 48°57' W 123°43'2 4.0
2018-Apr-12 03:27N 48°59' W 123°43'1 1.4
2018-Apr-12 02:59N 48°59' W 123°43'5 3.7
2018-Apr-12 01:41N 48°60' W 123°36'3 8.2
2018-Apr-12 01:17N 48°57' W 123°33'2 7.8
2018-Apr-12 00:58N 48°56' W 123°29'4 8.0
2018-Apr-12 00:30N 48°53' W 123°26'4 7.8
2018-Apr-12 00:00N 48°50' W 123°21'4 7.6
2018-Apr-11 23:28N 48°46' W 123°20'13 4.1
2018-Apr-11 20:13N 48°56' W 123°34'1 0.9
2018-Apr-11 18:53N 48°57' W 123°33'4 9.8
2018-Apr-11 18:30N 48°55' W 123°29'2 4.4
2018-Apr-11 18:00N 48°53' W 123°27'5 9.5
2018-Apr-11 17:25N 48°50' W 123°20'6 2.8
2018-Apr-11 15:16N 48°44' W 123°24'2 8.7
2018-Apr-11 14:59N 48°46' W 123°21'3 6.8
2018-Apr-11 14:30N 48°49' W 123°24'5 8.9
2018-Apr-11 13:57N 48°53' W 123°27'4 9.2
2018-Apr-11 13:29N 48°56' W 123°32'3 5.9
2018-Apr-11 13:00N 48°56' W 123°37'2 4.5
2018-Apr-11 12:29N 48°56' W 123°40'6 2.8
2018-Apr-11 10:28N 48°56' W 123°32'4 9.4
2018-Apr-11 10:00N 48°53' W 123°27'5 9.6
2018-Apr-11 09:29N 48°50' W 123°21'4 9.2
2018-Apr-11 09:00N 48°46' W 123°21'5 9.4
2018-Apr-11 08:30N 48°43' W 123°26'4 7.2
2018-Apr-11 07:53N 48°40' W 123°31'3 8.2
2018-Apr-11 07:30N 48°42' W 123°28'5 9.1
2018-Apr-11 06:55N 48°45' W 123°22'2 5.4
2018-Apr-11 06:28N 48°48' W 123°22'2 5.1
2018-Apr-11 06:00N 48°49' W 123°25'7 7.9
2018-Apr-11 05:10N 48°55' W 123°30'5 9.4
2018-Apr-11 04:39N 48°57' W 123°36'3 9.2
2018-Apr-11 04:18N 48°54' W 123°37'4 9.0
2018-Apr-11 03:53N 48°56' W 123°41'1 1.6
2018-Apr-11 03:30N 48°56' W 123°41'5 2.4
2018-Apr-11 01:19N 48°58' W 123°33'3 8.6
2018-Apr-11 00:55N 48°55' W 123°30'4 8.6
2018-Apr-11 00:29N 48°52' W 123°26'4 9.5
2018-Apr-11 00:00N 48°50' W 123°20'4 6.8
2018-Apr-10 23:28N 48°46' W 123°20'4 2.4
2018-Apr-10 21:56N 48°44' W 123°24'3 7.4
2018-Apr-10 21:28N 48°47' W 123°21'4 7.9
2018-Apr-10 20:58N 48°50' W 123°25'4 8.3
2018-Apr-10 20:28N 48°54' W 123°28'7 9.1
2018-Apr-10 19:45N 48°57' W 123°36'3 8.4
2018-Apr-10 19:27N 48°55' W 123°36'9 7.2
2018-Apr-10 18:14N 49°01' W 123°44'0 0.3
2018-Apr-10 17:27N 49°01' W 123°44'2 4.7
2018-Apr-10 17:00N 48°59' W 123°44'1 1.9
2018-Apr-10 16:27N 48°60' W 123°45'3 6.1
2018-Apr-10 16:00N 48°57' W 123°43'2 4.3
2018-Apr-10 15:29N 48°60' W 123°44'2 4.3
2018-Apr-10 14:59N 48°57' W 123°43'1 1.1
2018-Apr-10 14:29N 48°58' W 123°43'3 5.4
2018-Apr-10 14:00N 49°00' W 123°44'8 5.3
2018-Apr-10 12:28N 48°57' W 123°33'4 7.5
2018-Apr-10 12:00N 48°55' W 123°29'4 7.6
2018-Apr-10 11:29N 48°52' W 123°25'4 7.6
2018-Apr-10 11:00N 48°50' W 123°20'3 4.7
2018-Apr-10 10:28N 48°49' W 123°24'4 8.0
2018-Apr-10 09:57N 48°53' W 123°26'4 7.9
2018-Apr-10 09:25N 48°55' W 123°31'3 8.0
2018-Apr-10 09:00N 48°57' W 123°36'3 6.1
2018-Apr-10 08:29N 48°54' W 123°38'4 8.1
2018-Apr-10 08:00N 48°57' W 123°42'5 3.5
2018-Apr-10 06:30N 49°00' W 123°36'5 8.4
2018-Apr-10 05:55N 48°56' W 123°32'4 8.4
2018-Apr-10 05:30N 48°54' W 123°28'6 8.8
2018-Apr-10 04:47N 48°50' W 123°21'2 6.4
2018-Apr-10 04:27N 48°48' W 123°22'3 6.5
2018-Apr-10 03:59N 48°50' W 123°25'4 7.1
2018-Apr-10 03:29N 48°53' W 123°27'6 5.7
2018-Apr-10 02:23N 48°54' W 123°36'4 9.5
2018-Apr-10 02:01N 48°56' W 123°41'6 9.2
2018-Apr-10 01:23N 49°02' W 123°44'8 7.3
2018-Apr-10 00:17N 48°58' W 123°33'3 9.4
2018-Apr-09 23:57N 48°55' W 123°30'4 9.5
2018-Apr-09 23:28N 48°52' W 123°25'4 9.1
2018-Apr-09 22:59N 48°49' W 123°20'9 8.7
2018-Apr-09 21:56N 48°41' W 123°15'3 7.1
2018-Apr-09 21:29N 48°38' W 123°13'3 7.3
2018-Apr-09 21:00N 48°34' W 123°12'4 8.3
2018-Apr-09 20:30N 48°30' W 123°11'4 8.9
2018-Apr-09 20:00N 48°26' W 123°10'4 8.4
2018-Apr-09 19:30N 48°23' W 123°15'4 5.1
2018-Apr-09 18:44N 48°21' W 123°20'315.1
2018-Apr-09 18:30N 48°21' W 123°15'1 1.6
2018-Apr-09 18:00N 48°21' W 123°16'  
2018-Apr-06 20:01N 48°23' W 123°23'0 9.3
2018-Apr-06 20:00N 48°23' W 123°22'19 8.6
2018-Apr-06 17:47N 48°42' W 123°16'310.1
2018-Apr-06 17:30N 48°44' W 123°18'5 9.7
2018-Apr-06 17:00N 48°48' W 123°22'5 9.2
2018-Apr-06 16:30N 48°52' W 123°25'510.0
2018-Apr-06 16:00N 48°55' W 123°31'3 6.7
2018-Apr-06 15:29N 48°55' W 123°37'3 6.1
2018-Apr-06 15:00N 48°56' W 123°41'5 3.8
2018-Apr-06 13:42N 48°60' W 123°36'210.3
2018-Apr-06 13:30N 48°58' W 123°34'510.4
2018-Apr-06 13:00N 48°55' W 123°29'510.2
2018-Apr-06 12:30N 48°51' W 123°23'3 6.6
2018-Apr-06 12:00N 48°48' W 123°22'5 9.5
2018-Apr-06 11:31N 48°52' W 123°25'510.0
2018-Apr-06 11:00N 48°55' W 123°31'4 7.8
2018-Apr-06 10:30N 48°56' W 123°37'3 5.1
2018-Apr-06 09:59N 48°56' W 123°40'5 3.7
2018-Apr-06 08:38N 48°60' W 123°36'210.0
2018-Apr-06 08:25N 48°58' W 123°34'4 9.7
2018-Apr-06 08:00N 48°55' W 123°30'5 9.5
2018-Apr-06 07:30N 48°52' W 123°25'510.5
2018-Apr-06 07:01N 48°48' W 123°20'13 8.2
2018-Apr-06 05:27N 48°48' W 123°01'511.1
2018-Apr-06 05:00N 48°52' W 123°06'610.9
2018-Apr-06 04:29N 48°56' W 123°12'511.0
2018-Apr-06 04:00N 48°60' W 123°18'510.7
2018-Apr-06 03:30N 49°03' W 123°24'510.5
2018-Apr-06 02:59N 49°09' W 123°23'510.9
2018-Apr-06 02:30N 49°14' W 123°21'510.8
2018-Apr-06 02:00N 49°19' W 123°17'611.0
2018-Apr-06 01:30N 49°19' W 123°09'2 3.3
2018-Apr-06 01:00N 49°18' W 123°07'0 0.0
2018-Apr-06 00:30N 49°18' W 123°07'0 0.0
2018-Apr-06 00:00N 49°18' W 123°07'1 1.2
2018-Apr-05 23:30N 49°18' W 123°06'0 0.5
2018-Apr-05 23:00N 49°18' W 123°06'1 2.3
2018-Apr-05 22:31N 49°19' W 123°08'4 7.3
2018-Apr-05 22:00N 49°19' W 123°14'510.6
2018-Apr-05 21:31N 49°18' W 123°22'611.0
2018-Apr-05 21:00N 49°20' W 123°30'3 6.9
2018-Apr-05 20:30N 49°23' W 123°28'5 8.9
2018-Apr-05 20:00N 49°27' W 123°24'0 0.6
2018-Apr-05 19:30N 49°27' W 123°24'1 2.1
2018-Apr-05 19:00N 49°27' W 123°23'2 3.5
2018-Apr-05 18:30N 49°26' W 123°25'0 0.2
2018-Apr-05 18:00N 49°26' W 123°25'0 0.4
2018-Apr-05 17:30N 49°26' W 123°25'0 0.5
2018-Apr-05 16:59N 49°26' W 123°25'1 1.6
2018-Apr-05 16:30N 49°27' W 123°23'0 0.4
2018-Apr-05 15:59N 49°26' W 123°23'1 1.5
2018-Apr-05 15:30N 49°26' W 123°24'3 6.2
2018-Apr-05 15:00N 49°26' W 123°19'3 6.7
2018-Apr-05 14:30N 49°24' W 123°24'5 9.3
2018-Apr-05 14:00N 49°22' W 123°30'1210.2
2018-Apr-05 12:49N 49°23' W 123°49'510.2
2018-Apr-05 12:20N 49°23' W 123°57'410.1
2018-Apr-05 11:57N 49°24' W 124°02'510.4
2018-Apr-05 11:30N 49°24' W 124°10'510.5
2018-Apr-05 10:59N 49°24' W 124°18'5 9.9
2018-Apr-05 10:30N 49°25' W 124°25'510.2
2018-Apr-05 09:59N 49°30' W 124°29'5 9.2
2018-Apr-05 09:28N 49°34' W 124°33'510.2
2018-Apr-05 09:00N 49°38' W 124°37'5 9.4
2018-Apr-05 08:30N 49°42' W 124°41'611.4
2018-Apr-05 08:00N 49°47' W 124°41'5 9.3
2018-Apr-05 07:30N 49°49' W 124°34'612.0
2018-Apr-05 07:00N 49°45' W 124°26'611.4
2018-Apr-05 06:27N 49°42' W 124°18'711.7
2018-Apr-05 05:50N 49°36' W 124°11'1811.7
2018-Apr-05 04:16N 49°23' W 123°52'311.2
2018-Apr-05 04:00N 49°21' W 123°49'5 8.3
2018-Apr-05 03:23N 49°17' W 123°43'3 6.0
2018-Apr-05 02:55N 49°15' W 123°40'511.5
2018-Apr-05 02:30N 49°12' W 123°34'510.8
2018-Apr-05 02:00N 49°09' W 123°28'610.8
2018-Apr-05 01:29N 49°05' W 123°22'510.5
2018-Apr-05 01:00N 49°02' W 123°16'610.9
2018-Apr-05 00:30N 48°58' W 123°10'611.4
2018-Apr-05 00:00N 48°54' W 123°04'611.8
2018-Apr-04 23:30N 48°49' W 122°60'510.9
2018-Apr-04 23:00N 48°45' W 123°05'610.9
2018-Apr-04 22:29N 48°42' W 123°13'4 8.2
2018-Apr-04 22:00N 48°38' W 123°14'510.4
2018-Apr-04 21:30N 48°33' W 123°12'510.5
2018-Apr-04 21:00N 48°28' W 123°09'5 9.8
2018-Apr-04 20:30N 48°24' W 123°12'5 9.5
2018-Apr-04 20:00N 48°22' W 123°19'6 1.2
2018-Apr-04 15:06N 48°23' W 123°28'1 8.4
2018-Apr-04 15:00N 48°23' W 123°27'2 3.8
2018-Apr-04 14:30N 48°21' W 123°28'4 7.5
2018-Apr-04 14:00N 48°23' W 123°23'4 7.2
2018-Apr-04 13:30N 48°23' W 123°17'3 6.3
2018-Apr-04 13:00N 48°25' W 123°13'3 6.3
2018-Apr-04 12:30N 48°28' W 123°12'4 8.1
2018-Apr-04 12:00N 48°32' W 123°13'4 8.3
2018-Apr-04 11:30N 48°36' W 123°14'4 7.8
2018-Apr-04 11:00N 48°40' W 123°16'4 7.2
2018-Apr-04 10:30N 48°43' W 123°13'5 9.1
2018-Apr-04 10:00N 48°45' W 123°07'4 8.3
2018-Apr-04 09:30N 48°47' W 123°02'3 6.7
2018-Apr-04 08:59N 48°50' W 123°03'4 9.0
2018-Apr-04 08:30N 48°53' W 123°08'5 8.9
2018-Apr-04 08:00N 48°56' W 123°13'4 8.9
2018-Apr-04 07:30N 48°60' W 123°18'4 8.5
2018-Apr-04 06:59N 49°03' W 123°23'3 7.2
2018-Apr-04 06:30N 49°06' W 123°24'4 8.0
2018-Apr-04 06:00N 49°10' W 123°23'3 5.6
2018-Apr-04 05:30N 49°12' W 123°19'4 8.2
2018-Apr-04 05:00N 49°08' W 123°20'4 7.5
2018-Apr-04 04:29N 49°04' W 123°19'4 8.4
2018-Apr-04 04:00N 49°01' W 123°15'5 9.9
2018-Apr-04 03:28N 48°57' W 123°09'5 9.7
2018-Apr-04 02:55N 48°54' W 123°03'410.2
2018-Apr-04 02:30N 48°51' W 122°58'611.8
2018-Apr-04 01:59N 48°46' W 123°03'813.5
2018-Apr-04 01:23N 48°42' W 123°14'410.6
2018-Apr-04 01:00N 48°38' W 123°14'611.5
2018-Apr-04 00:30N 48°33' W 123°11'510.1
2018-Apr-04 00:01N 48°28' W 123°10'611.4
2018-Apr-03 23:30N 48°23' W 123°13'610.0
2018-Apr-03 22:54N 48°18' W 123°20'2 5.9
2018-Apr-03 22:30N 48°20' W 123°19'  

Dump ship's entire track history